Аэропорт: Петропавловск. Петропавловск

ICAO: UACP

METAR:
Информация по данной станции не доступна
METAR:
2021-04-21 11:03:00
TAF UACP 211103Z 2112/2121 01007MPS 9999 SCT030 TEMPO 2112/2118 35007G12MPS